Airfield :
LOGIN :

Register | Disclaimer

   EN    FR    IT 

 










Legend :    VFR   Marginal VFR   IFR   Intensive IFR   Very Intensive IFR
Visi :
Ceiling :
>= 8 km
>= 3000ft
5 to 8 km
1000 to 3000 ft
1500m to 5 km
500 to 1000 ft
800 to 1500m
200 to 500 ft
< 800m
< 200 ft
Symbols :   Thunderstorms  Fog  Heavy snow  Heavy precipitations  Wind > 20 kt
SIGMETs :     Misc.  Thunderstorms  Icing  Turbulence  Mountain Waves  Volcanic Ashes






- Airport Elevation : 141 ft
- IATA code : SKS


EKSP - Srydstrup Vojens

CURRENT METAR :
  • 141220Z 20010KT 9999 FEW010 BKN022 05/04 Q0978

EXPIRED METARs :
  • 141150Z 21010KT 9999 -RA SCT010 BKN020 05/04 Q0978
  • 141120Z 20012KT 9999 -RA FEW010 BKN020 05/04 Q0978
  • 141050Z 20011KT 9999 -RA FEW005 SCT010 BKN020 04/04 Q0978
  • 141020Z 22011KT 8000 -RA FEW005 SCT010 BKN015 04/03 Q0978
  • 141013Z 22013KT 8000 -RA FEW005 SCT010 BKN015 04/03 Q0978
  • 140950Z 18013KT 7000 RADZ FEW005 BKN010 04/03 Q0977

TAF TAF EKSP
Valid from the 14 at 12:00 until the 15 at 12:00 UTC


141119Z 1412/1512 23012KT 9999 BKN020
TEMPO 1412/1414 4000 SHRA BKN012 BKN015CB
TEMPO 1414/1501 24018G30KT 4000 SHRA BKN012 BKN015CB
BECMG 1505/1507 18015G28KT 4000 RA BKN008
BECMG 1507/1509 23018G32KT 9999 NSW BKN020
TEMPO 1509/1512 24025G40KT 4000 SHRA BKN015CB



MET'MAP, your aeronautical weather chart ! - Copyright ORBIFLY December 2007 - Disclaimer

ORBIFLY MET'MAP TEAM :

Programming & Development : Alexandra Zaïnal
Concept & original design : Baudouin d'Aumeries
Assistance for programming : Marc-Olivier Méhu
Technical & hardware support : Manuel Goepfert

Contact : metmap@orbifly.com




SOURCES & CREDITS :

   NOAA